Ocean Voyager — DJFS2 — position and weather

sailwx.info

Track history (hours):
 
Tides and Currents Weather Stations Pressure Air Temp Water Temp Dewpoint Dewpoint Depression Visibility Wind Speed Wind Dir Waves Ship Positions

Ocean Voyager

Last reported at 2017-Nov-19 22:49 UTC. Time now 2017-Nov-20 23:15 UTC.
Position N 35°57' W 005°11'.

Length 107 m; draft 8.1 m.

Type: Cargo ship. MMSI: 218615000.

Date/timePositionNaut miles runAvg speedWind from/ knotsBaromVisibWave heightAir tempDewpointWater temp
2017-Nov-19 22:49N 35°57' W 005°11'411.4
2017-Nov-19 22:30N 35°57' W 005°16'510.9
2017-Nov-19 22:00N 35°57' W 005°23'611.4
2017-Nov-19 21:30N 35°57' W 005°30'18411.2
2017-Nov-19 05:07N 36°34' W 009°13'111.2
2017-Nov-19 05:00N 36°34' W 009°14'510.9
2017-Nov-19 04:30N 36°38' W 009°20'611.5
2017-Nov-19 03:59N 36°42' W 009°25'612.2
2017-Nov-19 03:29N 36°46' W 009°30'611.5
2017-Nov-19 03:00N 36°51' W 009°33'1111.8
2017-Nov-19 02:05N 37°02' W 009°36'111.5
2017-Nov-19 01:59N 37°03' W 009°36'511.3
2017-Nov-19 01:30N 37°08' W 009°38'611.4
2017-Nov-19 00:58N 37°14' W 009°39'511.5
2017-Nov-19 00:30N 37°19' W 009°41'611.4
2017-Nov-19 00:00N 37°25' W 009°42'611.7
2017-Nov-18 23:30N 37°31' W 009°44'612.1
2017-Nov-18 23:00N 37°37' W 009°46'611.7
2017-Nov-18 22:30N 37°42' W 009°48'612.1
2017-Nov-18 22:00N 37°48' W 009°50'612.0
2017-Nov-18 21:30N 37°54' W 009°52'611.8
2017-Nov-18 21:00N 37°60' W 009°53'612.1
2017-Nov-18 20:30N 38°06' W 009°55'612.7
2017-Nov-18 20:00N 38°12' W 009°56'612.6
2017-Nov-18 19:30N 38°18' W 009°58'612.0
2017-Nov-18 19:00N 38°24' W 009°60'611.9
2017-Nov-18 18:30N 38°30' W 010°01'611.7
2017-Nov-18 18:00N 38°35' W 010°03'611.6
2017-Nov-18 17:30N 38°41' W 010°05'611.7
2017-Nov-18 17:00N 38°47' W 010°05'611.7
2017-Nov-18 16:30N 38°53' W 010°05'611.8
2017-Nov-18 16:00N 38°59' W 010°05'611.7
2017-Nov-18 15:30N 39°04' W 010°05'7711.8
2017-Nov-18 09:00N 40°21' W 010°05'1412.2
2017-Nov-18 07:49N 40°35' W 010°05'612.6
2017-Nov-18 07:21N 40°41' W 010°05'512.1
2017-Nov-18 06:56N 40°46' W 010°05'3011.5
2017-Nov-18 04:21N 41°16' W 010°05'39811.4
2017-Nov-16 17:23N 47°29' W 006°50'612.7
2017-Nov-16 16:55N 47°35' W 006°45'512.8
2017-Nov-16 16:30N 47°39' W 006°42'812.4
2017-Nov-16 15:52N 47°46' W 006°37'611.9
2017-Nov-16 15:23N 47°52' W 006°33'611.5
2017-Nov-16 14:50N 47°57' W 006°29'411.1
2017-Nov-16 14:27N 48°01' W 006°27'611.0
2017-Nov-16 13:56N 48°06' W 006°23'610.8
2017-Nov-16 13:24N 48°11' W 006°19'510.5
2017-Nov-16 12:59N 48°15' W 006°16'610.8
2017-Nov-16 12:26N 48°20' W 006°12'810.8
2017-Nov-16 11:41N 48°28' W 006°06'3111.9
2017-Nov-16 09:02N 48°54' W 005°41'713.3
2017-Nov-16 08:32N 48°58' W 005°32'113.2
2017-Nov-16 08:26N 48°58' W 005°30'713.0
2017-Nov-16 07:55N 49°02' W 005°21'611.1
2017-Nov-16 07:20N 49°05' W 005°13'3 8.5
2017-Nov-16 07:00N 49°06' W 005°09'4 8.3
2017-Nov-16 06:31N 49°08' W 005°04'6 9.7
2017-Nov-16 05:55N 49°11' W 004°56'410.2
2017-Nov-16 05:29N 49°13' W 004°50'5 9.7
2017-Nov-16 04:56N 49°16' W 004°43'5 9.3
2017-Nov-16 04:24N 49°18' W 004°37'4 9.1
2017-Nov-16 04:00N 49°20' W 004°32'4 8.9
2017-Nov-16 03:30N 49°22' W 004°26'21 9.1
2017-Nov-16 01:14N 49°33' W 003°59'510.0
2017-Nov-16 00:42N 49°36' W 003°52'410.3
2017-Nov-16 00:21N 49°37' W 003°47'410.7
2017-Nov-15 23:59N 49°39' W 003°41'1211.3
2017-Nov-15 22:57N 49°45' W 003°26'511.6
2017-Nov-15 22:30N 49°48' W 003°19'611.6
2017-Nov-15 22:00N 49°51' W 003°11'511.1
2017-Nov-15 21:30N 49°54' W 003°04'4 8.8
2017-Nov-15 21:00N 49°57' W 002°59'4 7.4
2017-Nov-15 20:30N 49°59' W 002°54'4 8.4
2017-Nov-15 19:59N 50°00' W 002°48'510.7
2017-Nov-15 19:28N 50°03' W 002°40'510.2
2017-Nov-15 19:00N 50°05' W 002°33'5110.2
2017-Nov-15 13:57N 50°28' W 001°22'612.9
2017-Nov-15 13:28N 50°30' W 001°12'713.5
2017-Nov-15 12:56N 50°30' W 001°01'613.5
2017-Nov-15 12:28N 50°30' W 000°51'613.5
2017-Nov-15 12:00N 50°31' W 000°41'713.5
2017-Nov-15 11:30N 50°31' W 000°31'613.0
2017-Nov-15 11:00N 50°31' W 000°21'612.7
2017-Nov-15 10:30N 50°32' W 000°11'612.5
2017-Nov-15 10:00N 50°33' W 000°01'612.0
2017-Nov-15 09:30N 50°35' E 000°08'611.6
2017-Nov-15 09:00N 50°36' E 000°17'611.2
2017-Nov-15 08:30N 50°38' E 000°26'510.6
2017-Nov-15 08:00N 50°39' E 000°33'510.7
2017-Nov-15 07:30N 50°42' E 000°41'510.7
2017-Nov-15 07:00N 50°44' E 000°48'510.7
2017-Nov-15 06:30N 50°48' E 000°55'911.6
2017-Nov-15 05:46N 50°53' E 001°05'312.4
2017-Nov-15 05:30N 50°55' E 001°10'613.1
2017-Nov-15 05:00N 50°60' E 001°17'713.9
2017-Nov-15 04:31N 51°04' E 001°26'714.1
2017-Nov-15 04:01N 51°08' E 001°34'713.4
2017-Nov-15 03:31N 51°13' E 001°42'612.5
2017-Nov-15 03:00N 51°18' E 001°47'612.0
2017-Nov-15 02:31N 51°24' E 001°51'611.1
2017-Nov-15 02:00N 51°29' E 001°56'510.9
2017-Nov-15 01:31N 51°33' E 002°01'510.4
2017-Nov-15 01:00N 51°36' E 002°07'5910.7
2017-Nov-14 19:30N 52°21' E 003°08'612.2
2017-Nov-14 18:59N 52°26' E 003°15'510.3
2017-Nov-14 18:31N 52°29' E 003°21'178 9.7
2017-Nov-14 00:08N 54°01' E 007°38'311.4
2017-Nov-13 23:53N 54°01' E 007°42'512.1
2017-Nov-13 23:29N 54°01' E 007°50'612.5
2017-Nov-13 23:00N 54°01' E 008°01'612.6
2017-Nov-13 22:30N 54°00' E 008°11'510.6
2017-Nov-13 22:00N 53°60' E 008°20'138 6.9
2017-Nov-13 02:00N 54°28' E 012°11'1010.4
2017-Nov-13 01:04N 54°37' E 012°17'1510.5
2017-Nov-12 23:38N 54°45' E 012°39'110.5
2017-Nov-12 23:30N 54°46' E 012°41'3410.8
2017-Nov-12 20:20N 54°57' E 013°37'511.0
2017-Nov-12 19:51N 54°59' E 013°46'411.0
2017-Nov-12 19:28N 55°01' E 013°53'510.9
2017-Nov-12 18:59N 55°02' E 014°01'610.7
2017-Nov-12 18:28N 55°06' E 014°09'511.0
2017-Nov-12 18:00N 55°10' E 014°14'611.0
2017-Nov-12 17:27N 55°14' E 014°21'511.2
2017-Nov-12 17:00N 55°18' E 014°26'811.3
2017-Nov-12 16:19N 55°25' E 014°35'810.8
2017-Nov-12 15:32N 55°30' E 014°47'111.2
2017-Nov-12 15:29N 55°30' E 014°47'510.8
2017-Nov-12 15:00N 55°33' E 014°55'510.8
2017-Nov-12 14:30N 55°36' E 015°03'510.7
2017-Nov-12 14:01N 55°39' E 015°11'510.7
2017-Nov-12 13:31N 55°42' E 015°19'510.7
2017-Nov-12 13:01N 55°45' E 015°27'510.8
2017-Nov-12 12:31N 55°48' E 015°35'510.8
2017-Nov-12 12:01N 55°51' E 015°43'511.0
2017-Nov-12 11:31N 55°54' E 015°51'510.9
2017-Nov-12 11:00N 55°57' E 015°58'510.7
2017-Nov-12 10:31N 55°60' E 016°07'5 9.7
2017-Nov-12 10:00N 56°02' E 016°15'1 1.6
2017-Nov-12 09:31N 56°02' E 016°16'1 3.0
2017-Nov-12 09:01N 56°03' E 016°19'4 8.9
2017-Nov-12 08:31N 56°04' E 016°26'511.0
2017-Nov-12 08:01N 56°07' E 016°35'611.3
2017-Nov-12 07:31N 56°10' E 016°43'611.3
2017-Nov-12 07:01N 56°15' E 016°46'611.2
2017-Nov-12 06:30N 56°21' E 016°49'611.3
2017-Nov-12 06:00N 56°26' E 016°53'21510.9
2017-Nov-11 10:23N 59°38' E 019°54'410.8
2017-Nov-11 10:00N 59°41' E 019°49'510.9
2017-Nov-11 09:30N 59°45' E 019°42'511.0
2017-Nov-11 09:00N 59°49' E 019°35'511.0
2017-Nov-11 08:30N 59°53' E 019°27'510.8
2017-Nov-11 08:00N 59°58' E 019°21'510.8
2017-Nov-11 07:30N 60°02' E 019°14'511.0
2017-Nov-11 07:01N 60°06' E 019°07'510.7
2017-Nov-11 06:30N 60°11' E 019°01'611.2
2017-Nov-11 06:00N 60°16' E 019°00'611.1
2017-Nov-11 05:30N 60°22' E 018°59'  
Track history (hours):
 
Tides and Currents Weather Stations Pressure Air Temp Water Temp Dewpoint Dewpoint Depression Visibility Wind Speed Wind Dir Waves Ship Positions

Ocean Voyager

Last reported at 2017-Nov-19 22:49 UTC. Time now 2017-Nov-20 23:15 UTC.
Position N 35°57' W 005°11'.

Length 107 m; draft 8.1 m.

Type: Cargo ship. MMSI: 218615000.

Date/timePositionNaut miles runAvg speedWind from/ knotsBaromVisibWave heightAir tempDewpointWater temp
2017-Nov-19 22:49N 35°57' W 005°11'411.4
2017-Nov-19 22:30N 35°57' W 005°16'510.9
2017-Nov-19 22:00N 35°57' W 005°23'611.4
2017-Nov-19 21:30N 35°57' W 005°30'18411.2
2017-Nov-19 05:07N 36°34' W 009°13'111.2
2017-Nov-19 05:00N 36°34' W 009°14'510.9
2017-Nov-19 04:30N 36°38' W 009°20'611.5
2017-Nov-19 03:59N 36°42' W 009°25'612.2
2017-Nov-19 03:29N 36°46' W 009°30'611.5
2017-Nov-19 03:00N 36°51' W 009°33'1111.8
2017-Nov-19 02:05N 37°02' W 009°36'111.5
2017-Nov-19 01:59N 37°03' W 009°36'511.3
2017-Nov-19 01:30N 37°08' W 009°38'611.4
2017-Nov-19 00:58N 37°14' W 009°39'511.5
2017-Nov-19 00:30N 37°19' W 009°41'611.4
2017-Nov-19 00:00N 37°25' W 009°42'611.7
2017-Nov-18 23:30N 37°31' W 009°44'612.1
2017-Nov-18 23:00N 37°37' W 009°46'611.7
2017-Nov-18 22:30N 37°42' W 009°48'612.1
2017-Nov-18 22:00N 37°48' W 009°50'612.0
2017-Nov-18 21:30N 37°54' W 009°52'611.8
2017-Nov-18 21:00N 37°60' W 009°53'612.1
2017-Nov-18 20:30N 38°06' W 009°55'612.7
2017-Nov-18 20:00N 38°12' W 009°56'612.6
2017-Nov-18 19:30N 38°18' W 009°58'612.0
2017-Nov-18 19:00N 38°24' W 009°60'611.9
2017-Nov-18 18:30N 38°30' W 010°01'611.7
2017-Nov-18 18:00N 38°35' W 010°03'611.6
2017-Nov-18 17:30N 38°41' W 010°05'611.7
2017-Nov-18 17:00N 38°47' W 010°05'611.7
2017-Nov-18 16:30N 38°53' W 010°05'611.8
2017-Nov-18 16:00N 38°59' W 010°05'611.7
2017-Nov-18 15:30N 39°04' W 010°05'7711.8
2017-Nov-18 09:00N 40°21' W 010°05'1412.2
2017-Nov-18 07:49N 40°35' W 010°05'612.6
2017-Nov-18 07:21N 40°41' W 010°05'512.1
2017-Nov-18 06:56N 40°46' W 010°05'3011.5
2017-Nov-18 04:21N 41°16' W 010°05'39811.4
2017-Nov-16 17:23N 47°29' W 006°50'612.7
2017-Nov-16 16:55N 47°35' W 006°45'512.8
2017-Nov-16 16:30N 47°39' W 006°42'812.4
2017-Nov-16 15:52N 47°46' W 006°37'611.9
2017-Nov-16 15:23N 47°52' W 006°33'611.5
2017-Nov-16 14:50N 47°57' W 006°29'411.1
2017-Nov-16 14:27N 48°01' W 006°27'611.0
2017-Nov-16 13:56N 48°06' W 006°23'610.8
2017-Nov-16 13:24N 48°11' W 006°19'510.5
2017-Nov-16 12:59N 48°15' W 006°16'610.8
2017-Nov-16 12:26N 48°20' W 006°12'810.8
2017-Nov-16 11:41N 48°28' W 006°06'3111.9
2017-Nov-16 09:02N 48°54' W 005°41'713.3
2017-Nov-16 08:32N 48°58' W 005°32'113.2
2017-Nov-16 08:26N 48°58' W 005°30'713.0
2017-Nov-16 07:55N 49°02' W 005°21'611.1
2017-Nov-16 07:20N 49°05' W 005°13'3 8.5
2017-Nov-16 07:00N 49°06' W 005°09'4 8.3
2017-Nov-16 06:31N 49°08' W 005°04'6 9.7
2017-Nov-16 05:55N 49°11' W 004°56'410.2
2017-Nov-16 05:29N 49°13' W 004°50'5 9.7
2017-Nov-16 04:56N 49°16' W 004°43'5 9.3
2017-Nov-16 04:24N 49°18' W 004°37'4 9.1
2017-Nov-16 04:00N 49°20' W 004°32'4 8.9
2017-Nov-16 03:30N 49°22' W 004°26'21 9.1
2017-Nov-16 01:14N 49°33' W 003°59'510.0
2017-Nov-16 00:42N 49°36' W 003°52'410.3
2017-Nov-16 00:21N 49°37' W 003°47'410.7
2017-Nov-15 23:59N 49°39' W 003°41'1211.3
2017-Nov-15 22:57N 49°45' W 003°26'511.6
2017-Nov-15 22:30N 49°48' W 003°19'611.6
2017-Nov-15 22:00N 49°51' W 003°11'511.1
2017-Nov-15 21:30N 49°54' W 003°04'4 8.8
2017-Nov-15 21:00N 49°57' W 002°59'4 7.4
2017-Nov-15 20:30N 49°59' W 002°54'4 8.4
2017-Nov-15 19:59N 50°00' W 002°48'510.7
2017-Nov-15 19:28N 50°03' W 002°40'510.2
2017-Nov-15 19:00N 50°05' W 002°33'5110.2
2017-Nov-15 13:57N 50°28' W 001°22'612.9
2017-Nov-15 13:28N 50°30' W 001°12'713.5
2017-Nov-15 12:56N 50°30' W 001°01'613.5
2017-Nov-15 12:28N 50°30' W 000°51'613.5
2017-Nov-15 12:00N 50°31' W 000°41'713.5
2017-Nov-15 11:30N 50°31' W 000°31'613.0
2017-Nov-15 11:00N 50°31' W 000°21'612.7
2017-Nov-15 10:30N 50°32' W 000°11'612.5
2017-Nov-15 10:00N 50°33' W 000°01'612.0
2017-Nov-15 09:30N 50°35' E 000°08'611.6
2017-Nov-15 09:00N 50°36' E 000°17'611.2
2017-Nov-15 08:30N 50°38' E 000°26'510.6
2017-Nov-15 08:00N 50°39' E 000°33'510.7
2017-Nov-15 07:30N 50°42' E 000°41'510.7
2017-Nov-15 07:00N 50°44' E 000°48'510.7
2017-Nov-15 06:30N 50°48' E 000°55'911.6
2017-Nov-15 05:46N 50°53' E 001°05'312.4
2017-Nov-15 05:30N 50°55' E 001°10'613.1
2017-Nov-15 05:00N 50°60' E 001°17'713.9
2017-Nov-15 04:31N 51°04' E 001°26'714.1
2017-Nov-15 04:01N 51°08' E 001°34'713.4
2017-Nov-15 03:31N 51°13' E 001°42'612.5
2017-Nov-15 03:00N 51°18' E 001°47'612.0
2017-Nov-15 02:31N 51°24' E 001°51'611.1
2017-Nov-15 02:00N 51°29' E 001°56'510.9
2017-Nov-15 01:31N 51°33' E 002°01'510.4
2017-Nov-15 01:00N 51°36' E 002°07'5910.7
2017-Nov-14 19:30N 52°21' E 003°08'612.2
2017-Nov-14 18:59N 52°26' E 003°15'510.3
2017-Nov-14 18:31N 52°29' E 003°21'178 9.7
2017-Nov-14 00:08N 54°01' E 007°38'311.4
2017-Nov-13 23:53N 54°01' E 007°42'512.1
2017-Nov-13 23:29N 54°01' E 007°50'612.5
2017-Nov-13 23:00N 54°01' E 008°01'612.6
2017-Nov-13 22:30N 54°00' E 008°11'510.6
2017-Nov-13 22:00N 53°60' E 008°20'138 6.9
2017-Nov-13 02:00N 54°28' E 012°11'1010.4
2017-Nov-13 01:04N 54°37' E 012°17'1510.5
2017-Nov-12 23:38N 54°45' E 012°39'110.5
2017-Nov-12 23:30N 54°46' E 012°41'3410.8
2017-Nov-12 20:20N 54°57' E 013°37'511.0
2017-Nov-12 19:51N 54°59' E 013°46'411.0
2017-Nov-12 19:28N 55°01' E 013°53'510.9
2017-Nov-12 18:59N 55°02' E 014°01'610.7
2017-Nov-12 18:28N 55°06' E 014°09'511.0
2017-Nov-12 18:00N 55°10' E 014°14'611.0
2017-Nov-12 17:27N 55°14' E 014°21'511.2
2017-Nov-12 17:00N 55°18' E 014°26'811.3
2017-Nov-12 16:19N 55°25' E 014°35'810.8
2017-Nov-12 15:32N 55°30' E 014°47'111.2
2017-Nov-12 15:29N 55°30' E 014°47'510.8
2017-Nov-12 15:00N 55°33' E 014°55'510.8
2017-Nov-12 14:30N 55°36' E 015°03'510.7
2017-Nov-12 14:01N 55°39' E 015°11'510.7
2017-Nov-12 13:31N 55°42' E 015°19'510.7
2017-Nov-12 13:01N 55°45' E 015°27'510.8
2017-Nov-12 12:31N 55°48' E 015°35'510.8
2017-Nov-12 12:01N 55°51' E 015°43'511.0
2017-Nov-12 11:31N 55°54' E 015°51'510.9
2017-Nov-12 11:00N 55°57' E 015°58'510.7
2017-Nov-12 10:31N 55°60' E 016°07'5 9.7
2017-Nov-12 10:00N 56°02' E 016°15'1 1.6
2017-Nov-12 09:31N 56°02' E 016°16'1 3.0
2017-Nov-12 09:01N 56°03' E 016°19'4 8.9
2017-Nov-12 08:31N 56°04' E 016°26'511.0
2017-Nov-12 08:01N 56°07' E 016°35'611.3
2017-Nov-12 07:31N 56°10' E 016°43'611.3
2017-Nov-12 07:01N 56°15' E 016°46'611.2
2017-Nov-12 06:30N 56°21' E 016°49'611.3
2017-Nov-12 06:00N 56°26' E 016°53'21510.9
2017-Nov-11 10:23N 59°38' E 019°54'410.8
2017-Nov-11 10:00N 59°41' E 019°49'510.9
2017-Nov-11 09:30N 59°45' E 019°42'511.0
2017-Nov-11 09:00N 59°49' E 019°35'511.0
2017-Nov-11 08:30N 59°53' E 019°27'510.8
2017-Nov-11 08:00N 59°58' E 019°21'510.8
2017-Nov-11 07:30N 60°02' E 019°14'511.0
2017-Nov-11 07:01N 60°06' E 019°07'510.7
2017-Nov-11 06:30N 60°11' E 019°01'611.2
2017-Nov-11 06:00N 60°16' E 019°00'611.1
2017-Nov-11 05:30N 60°22' E 018°59'  

Dump ship's entire track history